createdAt,value
2022-11-27T00:00:25.791Z,-1.40
2022-11-27T00:01:29.775Z,-1.40
2022-11-27T00:02:33.288Z,-1.40
2022-11-27T00:03:39.354Z,-1.40
2022-11-27T00:04:41.435Z,-1.40
2022-11-27T00:05:52.399Z,-1.40
2022-11-27T00:06:54.091Z,-1.40
2022-11-27T00:07:55.881Z,-1.40
2022-11-27T00:09:00.102Z,-1.40
2022-11-27T00:10:01.962Z,-1.40
2022-11-27T00:11:13.014Z,-1.40
2022-11-27T00:12:14.831Z,-1.40
2022-11-27T00:13:17.217Z,-1.40
2022-11-27T00:14:19.005Z,-1.40
2022-11-27T00:15:20.738Z,-1.40
2022-11-27T00:16:23.749Z,-1.40
2022-11-27T00:17:25.571Z,-1.40
2022-11-27T00:18:27.676Z,-1.40
2022-11-27T00:19:29.477Z,-1.50
2022-11-27T00:20:32.022Z,-1.40
2022-11-27T00:21:35.906Z,-1.40
2022-11-27T00:22:37.893Z,-1.40
2022-11-27T00:23:40.061Z,-1.50
2022-11-27T00:24:44.092Z,-1.50
2022-11-27T00:25:54.981Z,-1.50
2022-11-27T00:26:56.818Z,-1.40
2022-11-27T00:27:58.694Z,-1.50
2022-11-27T00:29:01.801Z,-1.50
2022-11-27T00:30:03.957Z,-1.50
2022-11-27T00:31:14.489Z,-1.50
2022-11-27T00:32:16.332Z,-1.50
2022-11-27T00:33:18.156Z,-1.60
2022-11-27T00:34:19.839Z,-1.60
2022-11-27T00:35:21.711Z,-1.60
2022-11-27T00:36:23.597Z,-1.60
2022-11-27T00:37:25.510Z,-1.60
2022-11-27T00:38:27.222Z,-1.60
2022-11-27T00:39:29.053Z,-1.60
2022-11-27T00:40:30.854Z,-1.60
2022-11-27T00:41:32.758Z,-1.60
2022-11-27T00:42:34.635Z,-1.60
2022-11-27T00:43:43.956Z,-1.60
2022-11-27T00:44:46.483Z,-1.70
2022-11-27T00:45:51.035Z,-1.60
2022-11-27T00:46:52.860Z,-1.70
2022-11-27T00:47:54.837Z,-1.70
2022-11-27T00:49:01.072Z,-1.70
2022-11-27T00:50:04.415Z,-1.70
2022-11-27T00:51:08.734Z,-1.70
2022-11-27T00:52:10.447Z,-1.70
2022-11-27T00:53:12.448Z,-1.70
2022-11-27T00:54:14.205Z,-1.70
2022-11-27T00:55:16.032Z,-1.70
2022-11-27T00:56:24.391Z,-1.70
2022-11-27T00:57:26.206Z,-1.70
2022-11-27T00:58:30.320Z,-1.60
2022-11-27T00:59:32.498Z,-1.70
2022-11-27T01:00:34.285Z,-1.60
2022-11-27T01:01:40.228Z,-1.70
2022-11-27T01:02:42.039Z,-1.70
2022-11-27T01:03:43.813Z,-1.70
2022-11-27T01:04:47.330Z,-1.70
2022-11-27T01:05:49.650Z,-1.60
2022-11-27T01:06:51.407Z,-1.70
2022-11-27T01:07:53.153Z,-1.70
2022-11-27T01:08:55.127Z,-1.70
2022-11-27T01:09:56.840Z,-1.60
2022-11-27T01:10:59.031Z,-1.60
2022-11-27T01:12:01.083Z,-1.60
2022-11-27T01:13:03.256Z,-1.60
2022-11-27T01:14:08.751Z,-1.60
2022-11-27T01:15:11.134Z,-1.60
2022-11-27T01:16:16.021Z,-1.60
2022-11-27T01:17:18.383Z,-1.70
2022-11-27T01:18:20.214Z,-1.70
2022-11-27T01:19:21.969Z,-1.70
2022-11-27T01:20:23.858Z,-1.70
2022-11-27T01:21:28.539Z,-1.70
2022-11-27T01:22:30.380Z,-1.70
2022-11-27T01:23:32.713Z,-1.70
2022-11-27T01:24:34.496Z,-1.70
2022-11-27T01:25:36.286Z,-1.70
2022-11-27T01:26:38.013Z,-1.70
2022-11-27T01:27:39.762Z,-1.70
2022-11-27T01:28:42.018Z,-1.70
2022-11-27T01:29:45.041Z,-1.70
2022-11-27T01:30:46.891Z,-1.70
2022-11-27T01:31:48.797Z,-1.70
2022-11-27T01:32:50.589Z,-1.70
2022-11-27T01:33:54.945Z,-1.70
2022-11-27T01:34:56.720Z,-1.70
2022-11-27T01:36:02.675Z,-1.70
2022-11-27T01:37:04.431Z,-1.70
2022-11-27T01:38:06.322Z,-1.70
2022-11-27T01:39:08.067Z,-1.70
2022-11-27T01:40:10.562Z,-1.60
2022-11-27T01:41:16.755Z,-1.70
2022-11-27T01:42:18.756Z,-1.70
2022-11-27T01:43:40.946Z,-1.70
2022-11-27T01:44:54.040Z,-1.70
2022-11-27T01:45:55.917Z,-1.70
2022-11-27T01:47:07.266Z,-1.70
2022-11-27T01:48:13.491Z,-1.70
2022-11-27T01:49:35.592Z,-1.60
2022-11-27T01:50:39.313Z,-1.60
2022-11-27T01:52:05.534Z,-1.60
2022-11-27T01:53:15.763Z,-1.60
2022-11-27T01:54:19.098Z,-1.70
2022-11-27T01:55:30.610Z,-1.60
2022-11-27T01:56:32.357Z,-1.60
2022-11-27T01:57:41.064Z,-1.60
2022-11-27T01:58:43.156Z,-1.60
2022-11-27T01:59:47.874Z,-1.60
2022-11-27T02:00:49.635Z,-1.60
2022-11-27T02:01:51.584Z,-1.60
2022-11-27T02:02:53.677Z,-1.60
2022-11-27T02:03:58.917Z,-1.60
2022-11-27T02:05:01.100Z,-1.60
2022-11-27T02:06:03.079Z,-1.60
2022-11-27T02:07:05.306Z,-1.60
2022-11-27T02:08:09.910Z,-1.60
2022-11-27T02:09:11.857Z,-1.60
2022-11-27T02:10:14.554Z,-1.60
2022-11-27T02:11:24.414Z,-1.60
2022-11-27T02:12:33.054Z,-1.50
2022-11-27T02:14:04.019Z,-1.50
2022-11-27T02:15:13.204Z,-1.60
2022-11-27T02:16:28.470Z,-1.60
2022-11-27T02:17:41.055Z,-1.60
2022-11-27T02:19:01.195Z,-1.70
2022-11-27T02:20:25.063Z,-1.70
2022-11-27T02:21:54.859Z,-1.70
2022-11-27T02:23:26.766Z,-1.70
2022-11-27T02:24:31.742Z,-1.70
2022-11-27T02:25:55.094Z,-1.70
2022-11-27T02:27:01.905Z,-1.70
2022-11-27T02:28:15.501Z,-1.70
2022-11-27T02:29:23.828Z,-1.70
2022-11-27T02:30:25.822Z,-1.70
2022-11-27T02:32:49.213Z,-1.70
2022-11-27T02:33:56.171Z,-1.70
2022-11-27T02:35:05.965Z,-1.60
2022-11-27T02:36:12.479Z,-1.60
2022-11-27T02:37:32.912Z,-1.60
2022-11-27T02:39:12.579Z,-1.70
2022-11-27T02:40:22.861Z,-1.70
2022-11-27T02:41:37.179Z,-1.70
2022-11-27T02:43:01.571Z,-1.80
2022-11-27T02:44:05.966Z,-1.70
2022-11-27T02:45:14.369Z,-1.80
2022-11-27T02:46:18.179Z,-1.80
2022-11-27T02:47:20.957Z,-1.80
2022-11-27T02:48:27.182Z,-1.80
2022-11-27T02:49:29.358Z,-1.80
2022-11-27T02:50:33.530Z,-1.70
2022-11-27T02:51:41.807Z,-1.80
2022-11-27T02:52:45.330Z,-1.80
2022-11-27T02:53:52.770Z,-1.80
2022-11-27T02:55:02.907Z,-1.80
2022-11-27T02:56:12.610Z,-1.70
2022-11-27T02:57:15.386Z,-1.70
2022-11-27T02:58:21.804Z,-1.70
2022-11-27T02:59:26.593Z,-1.70
2022-11-27T03:00:30.369Z,-1.70
2022-11-27T03:01:38.931Z,-1.70
2022-11-27T03:02:46.670Z,-1.70
2022-11-27T03:03:55.247Z,-1.70
2022-11-27T03:05:01.048Z,-1.70
2022-11-27T03:06:08.289Z,-1.70
2022-11-27T03:07:18.085Z,-1.70
2022-11-27T03:08:32.637Z,-1.70
2022-11-27T03:09:38.756Z,-1.70
2022-11-27T03:10:46.249Z,-1.70
2022-11-27T03:11:48.860Z,-1.70
2022-11-27T03:12:51.703Z,-1.70
2022-11-27T03:13:59.903Z,-1.70
2022-11-27T03:15:01.763Z,-1.70
2022-11-27T03:16:15.889Z,-1.70
2022-11-27T03:17:26.830Z,-1.70
2022-11-27T03:18:43.913Z,-1.70
2022-11-27T03:19:52.059Z,-1.70
2022-11-27T03:21:21.396Z,-1.70
2022-11-27T03:22:23.312Z,-1.70
2022-11-27T03:23:25.060Z,-1.70
2022-11-27T03:24:29.646Z,-1.70
2022-11-27T03:25:31.425Z,-1.70
2022-11-27T03:26:34.416Z,-1.60
2022-11-27T03:27:42.127Z,-1.60
2022-11-27T03:28:45.632Z,-1.60
2022-11-27T03:29:54.306Z,-1.60
2022-11-27T03:30:56.217Z,-1.60
2022-11-27T03:32:00.430Z,-1.60
2022-11-27T03:33:02.771Z,-1.60
2022-11-27T03:34:06.617Z,-1.60
2022-11-27T03:35:11.878Z,-1.60
2022-11-27T03:36:16.591Z,-1.60
2022-11-27T03:37:18.525Z,-1.60
2022-11-27T03:38:20.321Z,-1.50
2022-11-27T03:39:23.174Z,-1.50
2022-11-27T03:40:48.029Z,-1.50
2022-11-27T03:42:05.203Z,-1.50
2022-11-27T03:43:22.372Z,-1.60
2022-11-27T03:44:30.905Z,-1.60
2022-11-27T03:45:43.680Z,-1.60
2022-11-27T03:47:14.864Z,-1.70
2022-11-27T03:48:25.508Z,-1.70
2022-11-27T03:49:52.047Z,-1.70
2022-11-27T03:50:56.726Z,-1.80
2022-11-27T03:52:12.274Z,-1.80
2022-11-27T03:53:17.409Z,-1.80
2022-11-27T03:54:50.338Z,-1.80
2022-11-27T03:56:27.310Z,-1.70
2022-11-27T03:57:34.653Z,-1.70
2022-11-27T03:58:43.962Z,-1.80
2022-11-27T03:59:48.746Z,-1.80
2022-11-27T04:00:51.945Z,-1.80
2022-11-27T04:01:53.808Z,-1.70
2022-11-27T04:02:55.534Z,-1.70
2022-11-27T04:03:57.435Z,-1.70
2022-11-27T04:04:59.224Z,-1.70
2022-11-27T04:06:01.338Z,-1.70
2022-11-27T04:07:03.295Z,-1.70
2022-11-27T04:08:05.407Z,-1.60
2022-11-27T04:09:07.294Z,-1.70
2022-11-27T04:10:10.600Z,-1.60
2022-11-27T04:11:12.595Z,-1.60
2022-11-27T04:12:14.598Z,-1.50
2022-11-27T04:13:16.943Z,-1.60
2022-11-27T04:14:18.682Z,-1.60
2022-11-27T04:15:20.387Z,-1.60
2022-11-27T04:16:22.587Z,-1.60
2022-11-27T04:17:24.533Z,-1.60
2022-11-27T04:18:26.437Z,-1.60
2022-11-27T04:19:28.700Z,-1.60
2022-11-27T04:20:30.633Z,-1.60
2022-11-27T04:21:32.436Z,-1.60
2022-11-27T04:22:34.144Z,-1.60
2022-11-27T04:23:37.685Z,-1.60
2022-11-27T04:24:39.660Z,-1.60
2022-11-27T04:25:41.643Z,-1.60
2022-11-27T04:26:43.697Z,-1.60
2022-11-27T04:27:45.576Z,-1.60
2022-11-27T04:28:47.287Z,-1.60
2022-11-27T04:29:49.050Z,-1.60
2022-11-27T04:30:52.951Z,-1.50
2022-11-27T04:31:54.728Z,-1.50
2022-11-27T04:32:56.609Z,-1.50
2022-11-27T04:33:58.349Z,-1.50
2022-11-27T04:35:00.129Z,-1.50
2022-11-27T04:36:01.926Z,-1.50
2022-11-27T04:37:03.728Z,-1.50
2022-11-27T04:38:05.482Z,-1.50
2022-11-27T04:39:07.367Z,-1.50
2022-11-27T04:40:09.836Z,-1.50
2022-11-27T04:41:11.558Z,-1.50
2022-11-27T04:42:13.560Z,-1.50
2022-11-27T04:43:15.436Z,-1.50
2022-11-27T04:44:17.547Z,-1.50
2022-11-27T04:45:19.479Z,-1.50
2022-11-27T04:46:21.683Z,-1.50
2022-11-27T04:47:23.467Z,-1.50
2022-11-27T04:48:25.193Z,-1.50
2022-11-27T04:49:26.951Z,-1.50
2022-11-27T04:50:28.944Z,-1.50
2022-11-27T04:51:30.861Z,-1.50
2022-11-27T04:52:33.135Z,-1.50
2022-11-27T04:53:34.887Z,-1.50
2022-11-27T04:54:37.053Z,-1.50
2022-11-27T04:55:38.809Z,-1.40
2022-11-27T04:56:40.627Z,-1.50
2022-11-27T04:57:42.745Z,-1.50
2022-11-27T04:58:44.496Z,-1.50
2022-11-27T04:59:46.281Z,-1.40
2022-11-27T05:00:48.135Z,-1.40
2022-11-27T05:01:50.386Z,-1.50
2022-11-27T05:02:52.198Z,-1.50
2022-11-27T05:03:53.976Z,-1.50
2022-11-27T05:04:55.797Z,-1.50
2022-11-27T05:05:58.481Z,-1.50
2022-11-27T05:07:00.246Z,-1.50
2022-11-27T05:08:02.162Z,-1.50
2022-11-27T05:09:04.003Z,-1.50
2022-11-27T05:10:06.637Z,-1.50
2022-11-27T05:11:12.198Z,-1.50
2022-11-27T05:12:14.100Z,-1.50
2022-11-27T05:13:15.907Z,-1.50
2022-11-27T05:14:21.891Z,-1.50
2022-11-27T05:15:23.629Z,-1.50
2022-11-27T05:16:25.470Z,-1.50
2022-11-27T05:17:27.270Z,-1.50
2022-11-27T05:18:29.002Z,-1.50
2022-11-27T05:19:31.684Z,-1.50
2022-11-27T05:20:33.387Z,-1.50
2022-11-27T05:21:35.364Z,-1.50
2022-11-27T05:22:37.334Z,-1.50
2022-11-27T05:23:39.030Z,-1.50
2022-11-27T05:24:41.373Z,-1.50
2022-11-27T05:25:43.267Z,-1.50
2022-11-27T05:26:45.383Z,-1.50
2022-11-27T05:27:47.172Z,-1.50
2022-11-27T05:28:49.087Z,-1.50
2022-11-27T05:29:50.810Z,-1.50
2022-11-27T05:30:52.640Z,-1.50
2022-11-27T05:31:54.473Z,-1.40
2022-11-27T05:32:56.314Z,-1.40
2022-11-27T05:33:58.263Z,-1.40
2022-11-27T05:34:59.987Z,-1.40
2022-11-27T05:36:01.720Z,-1.40
2022-11-27T05:37:03.480Z,-1.40
2022-11-27T05:38:05.229Z,-1.40
2022-11-27T05:39:08.171Z,-1.40
2022-11-27T05:40:10.202Z,-1.40
2022-11-27T05:41:12.093Z,-1.40
2022-11-27T05:42:14.180Z,-1.40
2022-11-27T05:43:16.075Z,-1.40
2022-11-27T05:44:17.926Z,-1.40
2022-11-27T05:45:19.658Z,-1.40
2022-11-27T05:46:22.783Z,-1.40
2022-11-27T05:47:24.690Z,-1.40
2022-11-27T05:48:26.517Z,-1.50
2022-11-27T05:49:28.427Z,-1.50
2022-11-27T05:50:30.371Z,-1.50
2022-11-27T05:51:32.546Z,-1.50
2022-11-27T05:52:34.489Z,-1.50
2022-11-27T05:53:36.427Z,-1.50
2022-11-27T05:54:38.702Z,-1.50
2022-11-27T05:55:40.874Z,-1.50
2022-11-27T05:56:42.734Z,-1.40
2022-11-27T05:57:44.621Z,-1.40
2022-11-27T05:58:48.226Z,-1.40
2022-11-27T05:59:50.018Z,-1.50
2022-11-27T06:00:52.304Z,-1.40
2022-11-27T06:01:54.187Z,-1.40
2022-11-27T06:02:56.586Z,-1.50
2022-11-27T06:03:58.460Z,-1.50
2022-11-27T06:05:00.185Z,-1.50
2022-11-27T06:06:15.491Z,-1.50
2022-11-27T06:07:17.680Z,-1.40
2022-11-27T06:08:20.287Z,-1.50
2022-11-27T06:09:22.004Z,-1.40
2022-11-27T06:10:23.785Z,-1.40
2022-11-27T06:11:26.027Z,-1.40
2022-11-27T06:12:27.895Z,-1.40
2022-11-27T06:13:29.673Z,-1.40
2022-11-27T06:14:31.829Z,-1.40
2022-11-27T06:15:33.807Z,-1.50
2022-11-27T06:16:35.723Z,-1.40
2022-11-27T06:17:37.629Z,-1.40
2022-11-27T06:18:39.743Z,-1.40
2022-11-27T06:19:41.976Z,-1.40
2022-11-27T06:20:46.015Z,-1.40
2022-11-27T06:21:49.577Z,-1.50
2022-11-27T06:22:51.412Z,-1.50
2022-11-27T06:23:56.751Z,-1.50
2022-11-27T06:24:58.656Z,-1.40
2022-11-27T06:26:19.211Z,-1.50
2022-11-27T06:27:21.054Z,-1.50
2022-11-27T06:28:22.779Z,-1.50
2022-11-27T06:29:24.773Z,-1.50
2022-11-27T06:30:26.606Z,-1.60
2022-11-27T06:31:31.097Z,-1.60
2022-11-27T06:32:32.984Z,-1.60
2022-11-27T06:33:35.058Z,-1.60
2022-11-27T06:34:36.943Z,-1.60
2022-11-27T06:35:38.709Z,-1.50
2022-11-27T06:36:41.123Z,-1.50
2022-11-27T06:37:42.878Z,-1.50
2022-11-27T06:38:45.764Z,-1.50
2022-11-27T06:39:49.249Z,-1.50
2022-11-27T06:40:50.991Z,-1.50
2022-11-27T06:41:52.731Z,-1.50
2022-11-27T06:42:54.623Z,-1.50
2022-11-27T06:43:58.927Z,-1.50
2022-11-27T06:45:00.658Z,-1.50
2022-11-27T06:46:03.721Z,-1.50
2022-11-27T06:47:05.829Z,-1.50
2022-11-27T06:48:07.776Z,-1.40
2022-11-27T06:49:10.116Z,-1.50
2022-11-27T06:50:12.076Z,-1.40
2022-11-27T06:51:17.272Z,-1.40
2022-11-27T06:52:19.190Z,-1.40
2022-11-27T06:53:21.231Z,-1.40
2022-11-27T06:54:23.269Z,-1.40
2022-11-27T06:55:25.127Z,-1.40
2022-11-27T06:56:28.303Z,-1.40
2022-11-27T06:57:31.218Z,-1.30
2022-11-27T06:58:33.309Z,-1.40
2022-11-27T06:59:35.004Z,-1.40
2022-11-27T07:00:36.797Z,-1.40
2022-11-27T07:01:38.594Z,-1.40
2022-11-27T07:02:40.473Z,-1.40
2022-11-27T07:03:42.592Z,-1.40
2022-11-27T07:04:45.266Z,-1.30
2022-11-27T07:05:47.135Z,-1.30
2022-11-27T07:06:49.158Z,-1.30
2022-11-27T07:07:51.314Z,-1.30
2022-11-27T07:08:54.141Z,-1.40
2022-11-27T07:09:55.876Z,-1.40
2022-11-27T07:11:08.583Z,-1.40
2022-11-27T07:12:10.582Z,-1.40
2022-11-27T07:13:12.303Z,-1.40
2022-11-27T07:14:14.110Z,-1.40
2022-11-27T07:15:15.940Z,-1.40
2022-11-27T07:16:18.945Z,-1.40
2022-11-27T07:17:20.744Z,-1.30
2022-11-27T07:18:22.507Z,-1.30
2022-11-27T07:19:24.287Z,-1.30
2022-11-27T07:20:26.060Z,-1.30
2022-11-27T07:21:28.814Z,-1.30
2022-11-27T07:22:32.656Z,-1.30
2022-11-27T07:23:36.059Z,-1.20
2022-11-27T07:24:37.982Z,-1.30
2022-11-27T07:25:39.854Z,-1.20
2022-11-27T07:26:41.666Z,-1.20
2022-11-27T07:27:43.515Z,-1.30
2022-11-27T07:28:46.087Z,-1.30
2022-11-27T07:29:47.966Z,-1.30
2022-11-27T07:30:58.108Z,-1.30
2022-11-27T07:31:59.873Z,-1.30
2022-11-27T07:33:02.006Z,-1.30
2022-11-27T07:34:06.853Z,-1.30
2022-11-27T07:35:11.840Z,-1.30
2022-11-27T07:36:20.465Z,-1.30
2022-11-27T07:37:22.186Z,-1.30
2022-11-27T07:38:23.920Z,-1.30
2022-11-27T07:39:54.171Z,-1.20
2022-11-27T07:40:50.118Z,-1.20
2022-11-27T07:41:52.185Z,-1.30
2022-11-27T07:42:53.942Z,-1.20
2022-11-27T07:43:55.692Z,-1.20
2022-11-27T07:44:57.531Z,-1.20
2022-11-27T07:45:59.578Z,-1.30
2022-11-27T07:47:01.394Z,-1.20
2022-11-27T07:48:03.153Z,-1.20
2022-11-27T07:49:05.274Z,-1.20
2022-11-27T07:50:08.664Z,-1.20
2022-11-27T07:51:12.121Z,-1.10
2022-11-27T07:52:14.967Z,-1.10
2022-11-27T07:53:16.853Z,-1.10
2022-11-27T07:54:18.594Z,-1.10
2022-11-27T07:55:20.302Z,-1.10
2022-11-27T07:56:22.195Z,-1.10
2022-11-27T07:57:24.023Z,-1.10
2022-11-27T07:58:25.776Z,-1.10
2022-11-27T07:59:27.812Z,-1.10
2022-11-27T08:00:29.694Z,-1.10
2022-11-27T08:01:31.476Z,-1.00
2022-11-27T08:02:33.307Z,-1.00
2022-11-27T08:03:35.421Z,-1.00
2022-11-27T08:04:37.241Z,-1.00
2022-11-27T08:05:39.173Z,-1.00
2022-11-27T08:06:40.904Z,-1.00
2022-11-27T08:07:42.763Z,-1.00
2022-11-27T08:08:45.426Z,-1.10
2022-11-27T08:09:47.307Z,-1.10
2022-11-27T08:10:49.034Z,-1.00
2022-11-27T08:11:50.917Z,-1.10
2022-11-27T08:12:52.661Z,-1.00
2022-11-27T08:13:59.798Z,-1.00
2022-11-27T08:15:01.568Z,-1.00
2022-11-27T08:16:03.452Z,-1.00
2022-11-27T08:17:08.637Z,-0.90
2022-11-27T08:18:12.134Z,-0.90
2022-11-27T08:19:13.920Z,-0.80
2022-11-27T08:20:15.940Z,-0.70
2022-11-27T08:21:17.846Z,-0.60
2022-11-27T08:22:20.675Z,-0.50
2022-11-27T08:23:22.556Z,-0.50
2022-11-27T08:24:26.636Z,-0.40
2022-11-27T08:25:28.442Z,-0.40
2022-11-27T08:26:30.271Z,-0.40
2022-11-27T08:27:33.399Z,-0.30
2022-11-27T08:28:35.543Z,-0.30
2022-11-27T08:29:38.245Z,-0.10
2022-11-27T08:30:40.005Z,-0.20
2022-11-27T08:31:41.865Z,-0.10
2022-11-27T08:32:44.950Z,-0.10
2022-11-27T08:33:47.413Z,-0.10
2022-11-27T08:34:49.260Z,0.00
2022-11-27T08:35:51.629Z,0.00
2022-11-27T08:36:53.613Z,0.00
2022-11-27T08:37:55.507Z,0.00
2022-11-27T08:38:57.507Z,0.00
2022-11-27T08:39:59.285Z,0.00
2022-11-27T08:41:03.921Z,0.00
2022-11-27T08:42:05.763Z,0.00
2022-11-27T08:43:07.589Z,0.00
2022-11-27T08:44:09.671Z,0.10
2022-11-27T08:45:11.744Z,0.00
2022-11-27T08:46:13.649Z,0.10
2022-11-27T08:47:16.852Z,0.00
2022-11-27T08:48:19.576Z,0.00
2022-11-27T08:49:21.634Z,0.00
2022-11-27T08:50:23.371Z,0.00
2022-11-27T08:51:25.228Z,0.10
2022-11-27T08:52:27.403Z,0.10
2022-11-27T08:53:29.248Z,0.10
2022-11-27T08:54:31.015Z,0.10
2022-11-27T08:55:33.148Z,0.10
2022-11-27T08:56:36.082Z,0.10
2022-11-27T08:57:38.437Z,0.10
2022-11-27T08:58:41.193Z,0.00
2022-11-27T08:59:43.166Z,0.00
2022-11-27T09:00:44.955Z,-0.10
2022-11-27T09:01:47.098Z,-0.10
2022-11-27T09:02:48.853Z,-0.20
2022-11-27T09:03:51.442Z,-0.20
2022-11-27T09:04:54.574Z,-0.20
2022-11-27T09:05:56.366Z,-0.30
2022-11-27T09:06:58.837Z,-0.30
2022-11-27T09:08:02.648Z,-0.40
2022-11-27T09:09:06.331Z,-0.40
2022-11-27T09:10:09.211Z,-0.40
2022-11-27T09:11:12.443Z,-0.40
2022-11-27T09:12:14.221Z,-0.50
2022-11-27T09:13:16.138Z,-0.50
2022-11-27T09:14:18.321Z,-0.50
2022-11-27T09:15:20.083Z,-0.50
2022-11-27T09:16:23.051Z,-0.50
2022-11-27T09:17:24.898Z,-0.50
2022-11-27T09:18:26.903Z,-0.50
2022-11-27T09:19:28.860Z,-0.40
2022-11-27T09:20:31.076Z,-0.40
2022-11-27T09:21:32.915Z,-0.40
2022-11-27T09:22:35.228Z,-0.40
2022-11-27T09:23:37.842Z,-0.40
2022-11-27T09:24:41.760Z,-0.40
2022-11-27T09:25:43.704Z,-0.50
2022-11-27T09:26:45.484Z,-0.40
2022-11-27T09:27:50.047Z,-0.40
2022-11-27T09:28:53.495Z,-0.40
2022-11-27T09:29:55.390Z,-0.40
2022-11-27T09:30:58.944Z,-0.30
2022-11-27T09:32:01.149Z,-0.30
2022-11-27T09:33:03.103Z,-0.30
2022-11-27T09:34:05.670Z,-0.30
2022-11-27T09:35:18.141Z,-0.30
2022-11-27T09:36:22.761Z,-0.30
2022-11-27T09:37:27.150Z,-0.40
2022-11-27T09:38:29.112Z,-0.30
2022-11-27T09:39:34.208Z,-0.30
2022-11-27T09:40:36.057Z,-0.30
2022-11-27T09:41:52.626Z,-0.30
2022-11-27T09:43:02.982Z,-0.40
2022-11-27T09:44:31.233Z,-0.40
2022-11-27T09:45:34.888Z,-0.40
2022-11-27T09:46:39.739Z,-0.40
2022-11-27T09:47:49.585Z,-0.30
2022-11-27T09:48:53.020Z,-0.30
2022-11-27T09:49:59.242Z,-0.30
2022-11-27T09:51:06.185Z,-0.40
2022-11-27T09:52:12.942Z,-0.30
2022-11-27T09:53:43.472Z,-0.30
2022-11-27T09:54:57.776Z,-0.20
2022-11-27T09:56:03.434Z,-0.30
2022-11-27T09:57:06.157Z,-0.30
2022-11-27T09:58:36.222Z,-0.30
2022-11-27T09:59:46.929Z,-0.30
2022-11-27T10:00:49.075Z,-0.30
2022-11-27T10:01:53.660Z,-0.30
2022-11-27T10:03:19.364Z,-0.30
2022-11-27T10:04:57.891Z,-0.30
2022-11-27T10:06:30.577Z,-0.30
2022-11-27T10:08:24.127Z,-0.40
2022-11-27T10:09:28.113Z,-0.40
2022-11-27T10:10:57.601Z,-0.40
2022-11-27T10:12:16.388Z,-0.40
2022-11-27T10:13:43.295Z,-0.30
2022-11-27T10:15:15.268Z,-0.40
2022-11-27T10:16:53.651Z,-0.30
2022-11-27T10:18:31.902Z,-0.30
2022-11-27T10:20:07.990Z,-0.30
2022-11-27T10:21:24.794Z,-0.30
2022-11-27T10:22:48.827Z,-0.30
2022-11-27T10:24:11.507Z,-0.20
2022-11-27T10:25:34.573Z,-0.20
2022-11-27T10:26:45.726Z,-0.10
2022-11-27T10:28:10.243Z,-0.10
2022-11-27T10:29:38.397Z,-0.10
2022-11-27T10:30:54.510Z,0.00
2022-11-27T10:32:01.754Z,-0.10
2022-11-27T10:33:12.037Z,0.00
2022-11-27T10:34:23.630Z,0.00
2022-11-27T10:35:28.600Z,0.00
2022-11-27T10:36:44.062Z,0.00
2022-11-27T10:38:06.809Z,0.00
2022-11-27T10:39:19.574Z,0.00
2022-11-27T10:41:00.768Z,-0.10
2022-11-27T10:42:22.831Z,-0.10
2022-11-27T10:43:25.715Z,-0.10
2022-11-27T10:44:32.795Z,-0.20
2022-11-27T10:45:45.292Z,-0.20
2022-11-27T10:46:49.437Z,-0.30
2022-11-27T10:47:51.684Z,-0.30
2022-11-27T10:48:53.927Z,-0.30
2022-11-27T10:49:57.521Z,-0.30
2022-11-27T10:51:00.334Z,-0.30
2022-11-27T10:52:02.414Z,-0.30
2022-11-27T10:53:10.574Z,-0.30
2022-11-27T10:54:26.961Z,-0.30
2022-11-27T10:55:55.710Z,-0.30
2022-11-27T10:56:57.410Z,-0.30
2022-11-27T10:58:33.513Z,-0.30
2022-11-27T10:59:46.632Z,-0.20
2022-11-27T11:00:48.500Z,-0.10
2022-11-27T11:01:53.445Z,-0.10
2022-11-27T11:03:03.742Z,0.00
2022-11-27T11:04:24.667Z,0.10
2022-11-27T11:05:41.356Z,0.10
2022-11-27T11:06:52.860Z,0.10
2022-11-27T11:08:06.640Z,0.10
2022-11-27T11:09:26.105Z,0.10
2022-11-27T11:10:44.553Z,0.10
2022-11-27T11:11:46.560Z,0.10
2022-11-27T11:12:48.668Z,0.10
2022-11-27T11:13:50.722Z,0.00
2022-11-27T11:14:57.661Z,0.00
2022-11-27T11:16:09.793Z,0.00
2022-11-27T11:17:18.505Z,0.00
2022-11-27T11:18:35.062Z,0.00
2022-11-27T11:19:38.993Z,-0.10
2022-11-27T11:20:47.373Z,-0.10
2022-11-27T11:21:49.375Z,-0.10
2022-11-27T11:22:51.889Z,-0.10
2022-11-27T11:24:12.910Z,-0.20
2022-11-27T11:25:19.079Z,-0.20
2022-11-27T11:26:23.711Z,-0.30
2022-11-27T11:27:29.726Z,-0.40
2022-11-27T11:28:39.409Z,-0.40
2022-11-27T11:29:49.394Z,-0.40
2022-11-27T11:30:59.091Z,-0.40
2022-11-27T11:32:11.352Z,-0.40
2022-11-27T11:33:14.535Z,-0.40
2022-11-27T11:34:35.001Z,-0.40
2022-11-27T11:35:37.275Z,-0.40
2022-11-27T11:36:39.289Z,-0.40
2022-11-27T11:37:46.459Z,-0.40
2022-11-27T11:38:49.528Z,-0.40
2022-11-27T11:39:58.631Z,-0.40
2022-11-27T11:41:03.907Z,-0.40
2022-11-27T11:42:11.127Z,-0.40
2022-11-27T11:43:42.283Z,-0.40
2022-11-27T11:44:50.814Z,-0.40
2022-11-27T11:45:52.641Z,-0.40
2022-11-27T11:46:55.254Z,-0.50
2022-11-27T11:48:03.122Z,-0.40
2022-11-27T11:49:18.747Z,-0.50
2022-11-27T11:50:34.051Z,-0.40
2022-11-27T11:52:07.092Z,-0.40
2022-11-27T11:53:20.730Z,-0.30
2022-11-27T11:54:29.014Z,-0.40
2022-11-27T11:55:59.304Z,-0.40
2022-11-27T11:57:05.708Z,-0.40
2022-11-27T11:58:29.488Z,-0.40
2022-11-27T12:00:00.694Z,-0.40
2022-11-27T12:01:33.179Z,-0.40
2022-11-27T12:03:13.859Z,-0.40
2022-11-27T12:04:21.467Z,-0.40
2022-11-27T12:05:32.750Z,-0.30
2022-11-27T12:06:58.150Z,-0.30
2022-11-27T12:08:16.375Z,-0.30
2022-11-27T12:10:02.798Z,-0.30
2022-11-27T12:11:18.559Z,-0.30
2022-11-27T12:12:32.398Z,-0.30
2022-11-27T12:14:15.904Z,-0.20
2022-11-27T12:15:50.265Z,-0.20
2022-11-27T12:17:14.083Z,-0.20
2022-11-27T12:18:26.966Z,-0.20
2022-11-27T12:19:47.380Z,-0.10
2022-11-27T12:21:12.175Z,-0.10
2022-11-27T12:22:22.867Z,-0.10
2022-11-27T12:23:41.693Z,-0.10
2022-11-27T12:24:58.891Z,-0.10
2022-11-27T12:26:34.423Z,-0.10
2022-11-27T12:27:57.404Z,-0.10
2022-11-27T12:29:43.294Z,0.00
2022-11-27T12:30:58.002Z,0.00
2022-11-27T12:32:17.410Z,-0.10
2022-11-27T12:33:53.371Z,-0.10
2022-11-27T12:35:04.496Z,-0.10
2022-11-27T12:36:24.974Z,-0.10
2022-11-27T12:37:45.721Z,-0.10
2022-11-27T12:38:55.929Z,-0.20
2022-11-27T12:40:00.770Z,-0.20
2022-11-27T12:41:44.799Z,-0.30
2022-11-27T12:42:46.780Z,-0.20
2022-11-27T12:43:52.232Z,-0.30
2022-11-27T12:45:04.186Z,-0.30
2022-11-27T12:46:11.589Z,-0.30
2022-11-27T12:47:23.241Z,-0.30
2022-11-27T12:48:44.504Z,-0.30
2022-11-27T12:49:57.374Z,-0.20
2022-11-27T12:51:10.864Z,-0.20
2022-11-27T12:52:23.878Z,-0.30
2022-11-27T12:53:37.157Z,-0.40
2022-11-27T12:54:51.160Z,-0.40
2022-11-27T12:56:14.930Z,-0.40
2022-11-27T12:57:39.167Z,-0.50
2022-11-27T12:58:46.807Z,-0.50
2022-11-27T12:59:56.969Z,-0.60
2022-11-27T13:01:11.391Z,-0.60
2022-11-27T13:03:02.993Z,-0.60
2022-11-27T13:04:24.665Z,-0.60
2022-11-27T13:05:35.795Z,-0.70
2022-11-27T13:06:56.699Z,-0.70
2022-11-27T13:08:08.842Z,-0.70
2022-11-27T13:09:21.216Z,-0.70
2022-11-27T13:10:42.657Z,-0.70
2022-11-27T13:11:44.754Z,-0.80
2022-11-27T13:13:06.690Z,-0.80
2022-11-27T13:14:17.013Z,-0.80
2022-11-27T13:15:25.723Z,-0.90
2022-11-27T13:16:50.376Z,-0.90
2022-11-27T13:18:14.487Z,-0.90
2022-11-27T13:19:33.177Z,-0.90
2022-11-27T13:20:38.744Z,-0.90
2022-11-27T13:21:43.262Z,-0.90
2022-11-27T13:22:46.791Z,-0.90
2022-11-27T13:23:49.360Z,-0.90
2022-11-27T13:24:51.345Z,-0.90
2022-11-27T13:25:56.447Z,-1.00
2022-11-27T13:27:08.867Z,-1.00
2022-11-27T13:28:22.070Z,-1.00
2022-11-27T13:29:44.344Z,-1.00
2022-11-27T13:30:47.875Z,-1.00
2022-11-27T13:31:55.509Z,-1.10
2022-11-27T13:33:01.827Z,-1.10
2022-11-27T13:34:15.887Z,-1.10
2022-11-27T13:35:27.462Z,-1.10
2022-11-27T13:36:40.625Z,-1.10
2022-11-27T13:37:42.857Z,-1.10
2022-11-27T13:38:45.558Z,-1.10
2022-11-27T13:39:48.063Z,-1.20
2022-11-27T13:40:53.704Z,-1.20
2022-11-27T13:42:22.137Z,-1.20
2022-11-27T13:43:44.224Z,-1.20
2022-11-27T13:45:07.297Z,-1.20
2022-11-27T13:46:27.134Z,-1.20
2022-11-27T13:49:08.841Z,-1.30
2022-11-27T13:50:18.176Z,-1.30
2022-11-27T13:52:03.653Z,-1.30
2022-11-27T13:53:07.517Z,-1.40
2022-11-27T13:54:23.295Z,-1.40
2022-11-27T13:55:38.041Z,-1.40
2022-11-27T13:56:44.558Z,-1.40
2022-11-27T13:57:57.239Z,-1.40
2022-11-27T13:58:59.307Z,-1.40
2022-11-27T14:00:08.051Z,-1.40
2022-11-27T14:01:23.150Z,-1.30
2022-11-27T14:02:41.318Z,-1.30
2022-11-27T14:03:47.078Z,-1.30
2022-11-27T14:04:56.459Z,-1.20
2022-11-27T14:06:06.910Z,-1.30
2022-11-27T14:07:22.510Z,-1.20
2022-11-27T14:08:38.775Z,-1.30
2022-11-27T14:09:58.074Z,-1.30
2022-11-27T14:11:05.939Z,-1.30
2022-11-27T14:12:21.884Z,-1.30
2022-11-27T14:13:58.420Z,-1.30
2022-11-27T14:15:07.752Z,-1.30
2022-11-27T14:16:33.411Z,-1.30
2022-11-27T14:17:39.613Z,-1.30
2022-11-27T14:18:51.299Z,-1.40
2022-11-27T14:20:10.472Z,-1.40
2022-11-27T14:21:44.594Z,-1.30
2022-11-27T14:23:12.764Z,-1.40
2022-11-27T14:24:39.960Z,-1.40
2022-11-27T14:26:04.738Z,-1.40
2022-11-27T14:27:20.230Z,-1.50
2022-11-27T14:28:27.468Z,-1.50
2022-11-27T14:29:31.719Z,-1.50
2022-11-27T14:30:39.693Z,-1.40
2022-11-27T14:31:45.595Z,-1.50
2022-11-27T14:32:49.288Z,-1.50
2022-11-27T14:34:15.659Z,-1.50